Time;durP1;ratioP1;P1;durP2;ratioP2;P2;SDS_P1;SDS_P2;PMS_P1;PMS_P2;Temp;Humidity;BMP_temperature;BMP_pressure;BME280_temperature;BME280_humidity;BME280_pressure;Samples;Min_cycle;Max_cycle;Signal;HPM_P1;HPM_P2
2023/10/19 05:01:06;;;;;;;56.40;27.60;;;;;;;;;;5668451;23;21021;-70
2023/10/19 05:03:33;;;;;;;55.70;25.70;;;;;;;;;;4973112;28;20435;-70
2023/10/19 05:05:58;;;;;;;40.30;22.13;;;;;;;;;;4973648;28;20824;-70
2023/10/19 05:08:25;;;;;;;52.47;26.20;;;;;;;;;;4974019;28;20487;-70
2023/10/19 05:10:54;;;;;;;51.43;24.23;;;;;;;;;;4972936;28;20439;-71
2023/10/19 05:13:19;;;;;;;56.67;29.07;;;;;;;;;;4973470;28;20781;-71
2023/10/19 05:15:45;;;;;;;47.60;24.67;;;;;;;;;;5003619;23;20991;-75
2023/10/19 05:18:12;;;;;;;58.43;28.70;;;;;;;;;;5011561;28;20931;-75
2023/10/19 05:20:40;;;;;;;61.67;29.43;;;;;;;;;;5011611;28;20426;-75
2023/10/19 05:23:06;;;;;;;64.87;31.10;;;;;;;;;;5011695;28;20402;-76
2023/10/19 05:25:32;;;;;;;55.13;29.17;;;;;;;;;;5008036;28;20430;-75
2023/10/19 05:28:00;;;;;;;57.97;29.70;;;;;;;;;;4991611;28;20427;-74
2023/10/19 05:30:27;;;;;;;57.37;28.57;;;;;;;;;;4991817;28;20411;-75
2023/10/19 05:32:53;;;;;;;65.73;28.83;;;;;;;;;;4991590;28;20415;-75
2023/10/19 05:35:22;;;;;;;61.30;30.80;;;;;;;;;;4991746;28;20597;-75
2023/10/19 05:37:49;;;;;;;53.77;26.90;;;;;;;;;;4991897;28;20410;-74
2023/10/19 05:40:15;;;;;;;66.57;32.43;;;;;;;;;;4991683;28;20434;-76
2023/10/19 05:42:41;;;;;;;52.47;27.10;;;;;;;;;;4974182;28;20434;-75
2023/10/19 05:45:07;;;;;;;57.73;25.53;;;;;;;;;;4991813;28;20429;-75
2023/10/19 05:47:34;;;;;;;54.97;27.53;;;;;;;;;;4992075;28;20414;-76
2023/10/19 05:50:00;;;;;;;58.80;28.60;;;;;;;;;;4991615;28;20419;-75
2023/10/19 05:52:26;;;;;;;54.97;26.40;;;;;;;;;;4991825;28;20501;-75
2023/10/19 05:54:53;;;;;;;49.87;24.77;;;;;;;;;;4992853;28;20462;-75
2023/10/19 05:57:19;;;;;;;55.50;26.73;;;;;;;;;;4995303;28;20445;-75
2023/10/19 05:59:45;;;;;;;56.93;25.07;;;;;;;;;;4995219;28;20403;-75
2023/10/19 06:02:11;;;;;;;59.63;29.97;;;;;;;;;;4975671;28;20424;-76
2023/10/19 06:04:37;;;;;;;63.63;25.43;;;;;;;;;;4977695;28;20425;-75
2023/10/19 06:07:03;;;;;;;60.83;27.23;;;;;;;;;;4995055;28;20440;-75
2023/10/19 06:09:29;;;;;;;47.57;23.97;;;;;;;;;;4994936;28;20461;-75
2023/10/19 06:11:56;;;;;;;46.90;24.53;;;;;;;;;;4995020;28;20414;-75
2023/10/19 06:14:22;;;;;;;46.07;24.90;;;;;;;;;;4994871;28;20895;-75
2023/10/19 06:16:47;;;;;;;45.40;23.80;;;;;;;;;;4994599;28;20497;-74
2023/10/19 06:19:13;;;;;;;49.20;26.20;;;;;;;;;;4977264;28;20473;-74
2023/10/19 06:21:39;;;;;;;88.20;20.87;;;;;;;;;;4990744;28;20441;-68
2023/10/19 06:24:06;;;;;;;49.87;22.67;;;;;;;;;;4997887;28;20423;-69
2023/10/19 06:26:32;;;;;;;51.97;24.47;;;;;;;;;;4993057;28;20493;-72
2023/10/19 06:28:59;;;;;;;42.50;22.33;;;;;;;;;;4993760;28;20801;-73
2023/10/19 06:31:25;;;;;;;42.37;22.73;;;;;;;;;;4993134;28;20419;-71
2023/10/19 06:33:52;;;;;;;45.87;24.17;;;;;;;;;;4994935;28;20444;-72
2023/10/19 06:36:19;;;;;;;46.53;23.50;;;;;;;;;;4993463;28;20470;-73
2023/10/19 06:38:45;;;;;;;62.17;31.87;;;;;;;;;;4993594;28;20978;-72
2023/10/19 06:41:14;;;;;;;40.17;23.53;;;;;;;;;;4994480;28;20407;-72
2023/10/19 06:43:40;;;;;;;58.83;29.13;;;;;;;;;;4994256;28;20786;-73
2023/10/19 06:46:07;;;;;;;51.57;24.53;;;;;;;;;;4994268;28;20770;-72
2023/10/19 06:48:33;;;;;;;57.57;28.93;;;;;;;;;;4993853;28;20426;-70
2023/10/19 06:51:00;;;;;;;52.93;25.53;;;;;;;;;;4989939;28;20493;-70
2023/10/19 06:53:26;;;;;;;65.27;24.50;;;;;;;;;;4993741;28;20431;-70
2023/10/19 06:55:52;;;;;;;60.83;31.30;;;;;;;;;;4993538;28;20837;-70
2023/10/19 06:58:19;;;;;;;48.60;22.10;;;;;;;;;;4980783;28;20584;-74
2023/10/19 07:00:55;;;;;;;58.97;31.57;;;;;;;;;;4974798;28;20498;-74
2023/10/19 07:03:22;;;;;;;42.93;23.07;;;;;;;;;;4974523;28;20440;-71
2023/10/19 07:05:49;;;;;;;44.97;23.67;;;;;;;;;;4975271;28;20447;-73
2023/10/19 07:08:15;;;;;;;46.90;24.33;;;;;;;;;;4957503;28;20420;-70
2023/10/19 07:10:42;;;;;;;53.43;24.07;;;;;;;;;;4974514;28;20424;-70
2023/10/19 07:13:09;;;;;;;49.50;24.17;;;;;;;;;;4981305;28;20444;-73
2023/10/19 07:15:34;;;;;;;52.57;25.30;;;;;;;;;;4997110;28;20557;-72
2023/10/19 07:18:00;;;;;;;53.13;24.10;;;;;;;;;;4987500;28;20423;-72
2023/10/19 07:20:28;;;;;;;45.70;23.50;;;;;;;;;;4989435;28;20424;-72
2023/10/19 07:22:55;;;;;;;54.10;26.33;;;;;;;;;;4973883;28;20435;-70
2023/10/19 07:25:22;;;;;;;48.43;22.00;;;;;;;;;;4981270;28;20434;-70
2023/10/19 07:27:49;;;;;;;46.43;23.07;;;;;;;;;;4982566;28;20431;-70
2023/10/19 07:30:16;;;;;;;51.33;23.87;;;;;;;;;;4987857;28;20530;-71
2023/10/19 07:32:42;;;;;;;39.27;20.80;;;;;;;;;;4988395;28;20976;-69
2023/10/19 07:35:08;;;;;;;35.13;21.67;;;;;;;;;;4993271;28;20467;-72
2023/10/19 07:37:35;;;;;;;44.73;23.20;;;;;;;;;;4990259;28;20522;-70
2023/10/19 07:40:01;;;;;;;46.03;23.93;;;;;;;;;;4994659;28;20430;-73
2023/10/19 07:42:27;;;;;;;45.27;24.47;;;;;;;;;;5001859;28;20430;-73
2023/10/19 07:44:53;;;;;;;42.33;22.60;;;;;;;;;;4988500;28;20450;-72
2023/10/19 07:47:19;;;;;;;48.80;23.43;;;;;;;;;;5012547;28;20454;-74
2023/10/19 07:49:47;;;;;;;43.27;22.17;;;;;;;;;;5012465;28;20406;-74
2023/10/19 07:52:14;;;;;;;46.17;21.03;;;;;;;;;;4993472;28;20411;-71
2023/10/19 07:54:40;;;;;;;52.07;22.33;;;;;;;;;;4992791;28;20467;-71
2023/10/19 07:57:06;;;;;;;35.90;19.47;;;;;;;;;;4991918;28;20958;-71
2023/10/19 07:59:35;;;;;;;36.90;19.90;;;;;;;;;;4992491;28;20918;-71
2023/10/19 08:02:04;;;;;;;45.27;23.07;;;;;;;;;;4993322;28;20425;-72
2023/10/19 08:04:31;;;;;;;42.97;18.50;;;;;;;;;;4993228;28;20886;-71
2023/10/19 08:06:58;;;;;;;35.13;17.40;;;;;;;;;;4991683;28;20454;-70
2023/10/19 08:09:24;;;;;;;25.73;15.47;;;;;;;;;;4992692;28;20894;-71
2023/10/19 08:11:55;;;;;;;31.87;17.63;;;;;;;;;;5007843;28;20413;-71
2023/10/19 08:14:21;;;;;;;30.73;16.63;;;;;;;;;;5001304;28;20426;-71
2023/10/19 08:16:47;;;;;;;29.67;15.33;;;;;;;;;;4992543;28;20478;-71
2023/10/19 08:19:13;;;;;;;26.20;15.93;;;;;;;;;;4992046;28;20770;-71
2023/10/19 08:21:39;;;;;;;18.83;12.33;;;;;;;;;;4993985;28;20438;-71
2023/10/19 08:24:05;;;;;;;22.80;13.70;;;;;;;;;;5001108;28;20430;-72
2023/10/19 08:26:32;;;;;;;23.90;13.67;;;;;;;;;;4993241;28;20962;-70
2023/10/19 08:29:00;;;;;;;22.20;12.67;;;;;;;;;;4992112;28;20414;-73
2023/10/19 08:31:27;;;;;;;18.13;11.70;;;;;;;;;;4991740;28;20985;-71
2023/10/19 08:33:54;;;;;;;16.50;10.17;;;;;;;;;;4991636;28;20458;-72
2023/10/19 08:36:21;;;;;;;18.03;9.97;;;;;;;;;;4992378;28;20470;-72
2023/10/19 08:38:47;;;;;;;20.07;11.73;;;;;;;;;;4992366;28;20740;-71
2023/10/19 08:41:15;;;;;;;16.77;10.50;;;;;;;;;;4992736;28;20423;-72
2023/10/19 08:43:41;;;;;;;20.63;11.83;;;;;;;;;;4974906;28;20459;-71
2023/10/19 08:46:07;;;;;;;19.03;10.50;;;;;;;;;;4991726;28;20493;-71
2023/10/19 08:48:38;;;;;;;25.63;11.33;;;;;;;;;;4991588;28;20426;-71
2023/10/19 08:51:06;;;;;;;22.40;11.73;;;;;;;;;;4992391;28;20477;-73
2023/10/19 08:53:39;;;;;;;21.77;11.80;;;;;;;;;;4974814;28;20514;-72
2023/10/19 08:56:06;;;;;;;23.10;11.87;;;;;;;;;;4992287;28;20508;-72
2023/10/19 08:58:32;;;;;;;18.43;10.20;;;;;;;;;;4992045;28;20407;-72
2023/10/19 09:01:06;;;;;;;23.50;12.90;;;;;;;;;;4991669;28;20434;-72
2023/10/19 09:03:32;;;;;;;16.83;10.43;;;;;;;;;;4992277;28;20415;-72
2023/10/19 09:06:01;;;;;;;20.07;10.77;;;;;;;;;;4992197;28;20442;-71
2023/10/19 09:08:38;;;;;;;14.20;9.60;;;;;;;;;;4991282;28;20477;-71
2023/10/19 09:11:07;;;;;;;23.17;9.13;;;;;;;;;;4992213;28;20415;-72
2023/10/19 09:13:44;;;;;;;18.30;9.20;;;;;;;;;;4992226;28;20778;-72
2023/10/19 09:16:10;;;;;;;18.60;9.20;;;;;;;;;;4990646;28;20480;-74
2023/10/19 09:18:36;;;;;;;16.33;8.80;;;;;;;;;;4992121;28;20506;-72
2023/10/19 09:21:05;;;;;;;26.03;9.53;;;;;;;;;;4992343;28;20600;-71
2023/10/19 09:23:31;;;;;;;10.43;6.80;;;;;;;;;;4991753;28;20918;-71
2023/10/19 09:25:58;;;;;;;22.80;9.20;;;;;;;;;;4991627;28;20455;-71
2023/10/19 09:28:24;;;;;;;16.40;8.17;;;;;;;;;;4991843;28;20502;-71
2023/10/19 09:30:51;;;;;;;10.60;6.90;;;;;;;;;;4994401;28;20410;-71
2023/10/19 09:33:21;;;;;;;15.63;7.83;;;;;;;;;;4996052;28;20411;-75
2023/10/19 09:35:48;;;;;;;14.83;7.93;;;;;;;;;;4995961;28;20969;-72
2023/10/19 09:38:15;;;;;;;16.43;9.37;;;;;;;;;;4995559;28;20418;-72
2023/10/19 09:40:42;;;;;;;15.70;9.07;;;;;;;;;;4995988;28;20972;-72
2023/10/19 09:43:14;;;;;;;10.93;7.90;;;;;;;;;;4996088;28;20479;-71
2023/10/19 09:45:42;;;;;;;13.73;7.87;;;;;;;;;;4995496;28;20431;-72
2023/10/19 09:48:09;;;;;;;21.20;9.33;;;;;;;;;;4990876;28;20799;-71
2023/10/19 09:50:35;;;;;;;14.43;8.33;;;;;;;;;;4995760;28;21033;-72
2023/10/19 09:53:03;;;;;;;15.63;7.30;;;;;;;;;;4986565;28;20903;-75
2023/10/19 09:55:38;;;;;;;17.23;7.97;;;;;;;;;;4975697;28;20459;-70
2023/10/19 09:58:09;;;;;;;17.70;9.93;;;;;;;;;;4976256;28;20411;-70
2023/10/19 10:00:35;;;;;;;13.93;8.87;;;;;;;;;;4991213;28;20435;-71
2023/10/19 10:03:05;;;;;;;13.43;8.10;;;;;;;;;;4989178;28;20422;-72
2023/10/19 10:05:43;;;;;;;13.50;8.73;;;;;;;;;;4990632;28;20802;-72
2023/10/19 10:08:18;;;;;;;14.87;7.83;;;;;;;;;;4980430;28;20742;-70
2023/10/19 10:10:44;;;;;;;16.00;7.83;;;;;;;;;;4992209;28;20520;-73
2023/10/19 10:13:30;;;;;;;13.83;7.00;;;;;;;;;;4981969;28;20495;-75
2023/10/19 10:15:58;;;;;;;13.37;7.30;;;;;;;;;;4992791;28;20474;-73
2023/10/19 10:18:24;;;;;;;11.20;6.33;;;;;;;;;;4994605;28;20411;-70
2023/10/19 10:21:09;;;;;;;14.70;7.20;;;;;;;;;;4994176;28;20431;-71
2023/10/19 10:23:40;;;;;;;11.00;6.20;;;;;;;;;;4987768;28;20815;-72
2023/10/19 10:26:08;;;;;;;10.80;6.47;;;;;;;;;;4994131;28;20446;-73
2023/10/19 10:28:35;;;;;;;12.80;7.23;;;;;;;;;;4974560;28;20578;-72
2023/10/19 10:31:21;;;;;;;13.97;8.13;;;;;;;;;;4986966;28;20423;-70
2023/10/19 10:33:57;;;;;;;15.90;9.47;;;;;;;;;;4981010;28;20430;-69
2023/10/19 10:36:23;;;;;;;20.30;8.83;;;;;;;;;;4988243;28;21029;-70
2023/10/19 10:38:50;;;;;;;18.07;9.70;;;;;;;;;;4993866;28;20479;-68
2023/10/19 10:41:28;;;;;;;17.20;10.20;;;;;;;;;;4986104;28;20415;-72
2023/10/19 10:43:58;;;;;;;19.03;10.37;;;;;;;;;;4975161;28;20435;-71
2023/10/19 10:46:25;;;;;;;18.20;11.37;;;;;;;;;;4994665;28;20484;-74
2023/10/19 10:48:51;;;;;;;19.80;11.37;;;;;;;;;;4994349;28;20415;-70
2023/10/19 10:51:17;;;;;;;20.50;11.27;;;;;;;;;;5013924;28;20423;-73
2023/10/19 10:53:43;;;;;;;22.13;11.97;;;;;;;;;;5014594;28;20411;-72
2023/10/19 10:56:09;;;;;;;19.40;11.90;;;;;;;;;;5001205;28;20525;-71
2023/10/19 10:58:35;;;;;;;21.90;12.10;;;;;;;;;;4994197;28;20422;-70
2023/10/19 11:01:02;;;;;;;23.00;11.80;;;;;;;;;;4988353;28;20428;-71
2023/10/19 11:03:30;;;;;;;31.43;10.53;;;;;;;;;;4978946;28;20931;-72
2023/10/19 11:05:56;;;;;;;21.43;11.20;;;;;;;;;;5002359;28;20534;-72
2023/10/19 11:08:24;;;;;;;17.30;9.33;;;;;;;;;;4993925;28;20770;-72
2023/10/19 11:10:51;;;;;;;18.87;9.40;;;;;;;;;;4992776;28;20453;-76
2023/10/19 11:13:18;;;;;;;24.40;9.73;;;;;;;;;;4993743;28;20446;-72
2023/10/19 11:15:48;;;;;;;22.03;9.70;;;;;;;;;;4993433;28;20462;-71
2023/10/19 11:18:28;;;;;;;26.00;8.90;;;;;;;;;;4993567;28;20418;-74
2023/10/19 11:20:55;;;;;;;14.27;9.33;;;;;;;;;;4990909;28;20422;-72
2023/10/19 11:23:34;;;;;;;19.80;11.33;;;;;;;;;;4992188;28;20407;-72
2023/10/19 11:26:02;;;;;;;20.83;11.00;;;;;;;;;;4993492;28;20963;-72
2023/10/19 11:28:29;;;;;;;19.43;12.00;;;;;;;;;;4993031;28;20898;-72
2023/10/19 11:30:55;;;;;;;20.77;11.53;;;;;;;;;;4991520;28;20489;-73
2023/10/19 11:33:24;;;;;;;17.23;10.53;;;;;;;;;;4989322;28;20454;-74
2023/10/19 11:35:50;;;;;;;24.57;11.30;;;;;;;;;;4993526;28;20482;-73
2023/10/19 11:38:17;;;;;;;20.13;11.20;;;;;;;;;;4991402;28;20477;-72
2023/10/19 11:40:43;;;;;;;17.70;11.40;;;;;;;;;;5001888;28;20422;-73
2023/10/19 11:43:10;;;;;;;18.83;10.23;;;;;;;;;;5011771;28;20501;-72
2023/10/19 11:45:36;;;;;;;22.23;12.10;;;;;;;;;;4993035;28;20946;-72
2023/10/19 11:48:03;;;;;;;22.20;11.80;;;;;;;;;;4992911;28;20451;-73
2023/10/19 11:50:29;;;;;;;24.63;13.17;;;;;;;;;;4975572;28;20485;-73
2023/10/19 11:52:56;;;;;;;20.93;11.10;;;;;;;;;;4974674;28;20411;-73
2023/10/19 11:55:22;;;;;;;21.03;13.27;;;;;;;;;;4992498;28;20485;-72
2023/10/19 11:57:48;;;;;;;21.80;12.40;;;;;;;;;;4992814;28;20415;-73
2023/10/19 12:00:21;;;;;;;26.10;12.60;;;;;;;;;;4992779;28;20450;-71
2023/10/19 12:02:47;;;;;;;23.73;12.60;;;;;;;;;;4992897;28;20822;-73
2023/10/19 12:05:13;;;;;;;22.30;12.60;;;;;;;;;;4993941;28;20419;-74
2023/10/19 12:07:39;;;;;;;21.47;12.17;;;;;;;;;;4992997;28;20933;-71
2023/10/19 12:10:09;;;;;;;26.40;13.10;;;;;;;;;;4992799;28;20423;-72
2023/10/19 12:12:36;;;;;;;17.63;11.03;;;;;;;;;;4992608;28;20418;-71
2023/10/19 12:15:02;;;;;;;22.73;12.77;;;;;;;;;;4992680;28;20470;-74
2023/10/19 12:17:29;;;;;;;20.57;11.90;;;;;;;;;;4992393;28;20497;-73
2023/10/19 12:19:55;;;;;;;17.30;10.27;;;;;;;;;;4992902;28;20426;-74
2023/10/19 12:22:21;;;;;;;15.97;11.57;;;;;;;;;;4992045;28;20494;-74
2023/10/19 12:24:48;;;;;;;17.37;9.97;;;;;;;;;;4975033;28;20886;-75
2023/10/19 12:27:14;;;;;;;22.73;10.17;;;;;;;;;;4992184;28;20517;-73
2023/10/19 12:29:40;;;;;;;20.03;12.30;;;;;;;;;;4992659;28;20415;-73
2023/10/19 12:32:06;;;;;;;19.50;11.30;;;;;;;;;;4992395;28;20415;-74
2023/10/19 12:34:33;;;;;;;20.03;10.57;;;;;;;;;;4992463;28;20416;-73
2023/10/19 12:36:59;;;;;;;19.67;11.30;;;;;;;;;;4991894;28;20494;-72
2023/10/19 12:42:28;;;;;;;22.87;13.50;;;;;;;;;;4931312;29;20541;-70
2023/10/19 12:44:55;;;;;;;23.23;13.40;;;;;;;;;;4979665;28;20419;-73
2023/10/19 12:47:22;;;;;;;26.80;14.73;;;;;;;;;;4990597;28;20450;-72
2023/10/19 12:49:49;;;;;;;25.13;11.93;;;;;;;;;;4991376;28;20504;-72
2023/10/19 12:52:15;;;;;;;25.60;14.07;;;;;;;;;;4973292;28;20434;-71
2023/10/19 12:54:45;;;;;;;24.37;13.43;;;;;;;;;;4986536;28;20438;-70
2023/10/19 12:57:12;;;;;;;17.53;11.90;;;;;;;;;;4991408;28;20447;-72
2023/10/19 12:59:38;;;;;;;22.90;14.53;;;;;;;;;;4992009;28;20476;-70
2023/10/19 13:02:04;;;;;;;18.47;11.50;;;;;;;;;;4991802;28;20419;-73
2023/10/19 13:04:33;;;;;;;27.00;13.90;;;;;;;;;;4975710;28;20434;-73
2023/10/19 13:06:59;;;;;;;23.80;13.20;;;;;;;;;;4995310;28;20811;-73
2023/10/19 13:09:33;;;;;;;35.63;17.20;;;;;;;;;;4995332;28;20423;-73
2023/10/19 13:11:59;;;;;;;28.73;15.63;;;;;;;;;;4995670;28;20430;-75
2023/10/19 13:14:26;;;;;;;23.30;13.80;;;;;;;;;;4995833;28;20484;-74
2023/10/19 13:16:52;;;;;;;29.33;14.17;;;;;;;;;;5010493;28;20530;-74
2023/10/19 13:19:20;;;;;;;23.43;13.40;;;;;;;;;;4997966;28;20422;-75
2023/10/19 13:21:47;;;;;;;21.77;12.00;;;;;;;;;;4966277;28;20462;-74
2023/10/19 13:24:13;;;;;;;19.33;11.10;;;;;;;;;;4993548;28;20423;-75
2023/10/19 13:26:42;;;;;;;29.83;13.43;;;;;;;;;;4994637;28;20508;-73
2023/10/19 13:29:08;;;;;;;38.50;13.33;;;;;;;;;;4985205;28;20482;-74
2023/10/19 13:31:34;;;;;;;27.23;14.00;;;;;;;;;;4995166;28;20910;-72
2023/10/19 13:34:03;;;;;;;26.43;14.90;;;;;;;;;;4995598;28;20469;-73
2023/10/19 13:36:28;;;;;;;26.50;13.63;;;;;;;;;;4995397;28;20474;-74
2023/10/19 13:38:55;;;;;;;20.97;13.73;;;;;;;;;;4987746;28;20447;-74
2023/10/19 13:41:20;;;;;;;27.73;15.17;;;;;;;;;;4982308;28;20433;-74
2023/10/19 13:43:47;;;;;;;36.93;15.80;;;;;;;;;;5005073;28;20419;-74
2023/10/19 13:46:13;;;;;;;29.93;14.60;;;;;;;;;;4994632;28;20973;-74
2023/10/19 13:48:39;;;;;;;39.53;16.27;;;;;;;;;;4994203;28;20430;-72
2023/10/19 13:51:12;;;;;;;32.10;16.27;;;;;;;;;;4992462;28;20526;-73
2023/10/19 13:53:38;;;;;;;26.93;14.20;;;;;;;;;;4994904;28;20430;-75
2023/10/19 13:56:07;;;;;;;35.60;18.53;;;;;;;;;;4988611;28;20616;-74
2023/10/19 13:58:33;;;;;;;27.07;15.67;;;;;;;;;;4982905;28;20423;-73
2023/10/19 14:00:59;;;;;;;23.83;15.30;;;;;;;;;;4986781;28;20780;-74
2023/10/19 14:03:25;;;;;;;30.30;16.07;;;;;;;;;;5013694;28;20785;-74
2023/10/19 14:05:54;;;;;;;26.17;16.03;;;;;;;;;;4994555;28;21012;-73
2023/10/19 14:08:20;;;;;;;27.60;14.00;;;;;;;;;;4984164;28;20807;-74
2023/10/19 14:10:46;;;;;;;22.60;14.40;;;;;;;;;;4994732;28;20434;-73
2023/10/19 14:13:14;;;;;;;28.67;13.93;;;;;;;;;;4983802;28;20444;-73
2023/10/19 14:15:40;;;;;;;26.93;13.03;;;;;;;;;;4976524;28;20498;-73
2023/10/19 14:18:06;;;;;;;24.87;11.80;;;;;;;;;;4993816;28;20462;-73
2023/10/19 14:20:33;;;;;;;26.03;14.77;;;;;;;;;;4993826;28;20930;-73
2023/10/19 14:22:59;;;;;;;28.10;15.90;;;;;;;;;;4997882;28;20453;-74
2023/10/19 14:25:26;;;;;;;25.10;14.80;;;;;;;;;;5004331;28;20459;-74
2023/10/19 14:27:55;;;;;;;28.90;14.13;;;;;;;;;;4994172;28;20455;-74
2023/10/19 14:30:25;;;;;;;26.53;13.20;;;;;;;;;;4992739;28;20462;-73
2023/10/19 14:32:51;;;;;;;22.03;13.20;;;;;;;;;;5014196;28;20445;-74
2023/10/19 14:35:18;;;;;;;29.63;14.90;;;;;;;;;;5014060;28;20461;-72
2023/10/19 14:37:49;;;;;;;23.43;14.10;;;;;;;;;;5000534;28;20455;-72
2023/10/19 14:40:17;;;;;;;22.20;13.40;;;;;;;;;;4987931;28;20418;-72
2023/10/19 14:42:43;;;;;;;30.00;15.60;;;;;;;;;;4994468;28;20411;-73
2023/10/19 14:45:13;;;;;;;25.40;15.50;;;;;;;;;;4978428;28;20425;-73
2023/10/19 14:47:43;;;;;;;32.73;16.27;;;;;;;;;;4994335;28;20522;-72
2023/10/19 14:50:15;;;;;;;29.43;18.27;;;;;;;;;;4994289;28;20418;-73
2023/10/19 14:52:42;;;;;;;33.33;17.40;;;;;;;;;;4988434;28;20848;-73
2023/10/19 14:55:09;;;;;;;26.83;16.40;;;;;;;;;;4989629;28;20565;-73
2023/10/19 14:57:36;;;;;;;23.00;14.90;;;;;;;;;;4994417;28;20419;-73
2023/10/19 15:02:46;;;;;;;34.70;18.63;;;;;;;;;;5013811;28;20405;-72
2023/10/19 15:05:16;;;;;;;31.73;18.23;;;;;;;;;;4998194;28;20422;-72
2023/10/19 15:07:46;;;;;;;25.67;15.70;;;;;;;;;;4994070;28;20932;-72
2023/10/19 15:10:13;;;;;;;30.83;17.73;;;;;;;;;;4994060;28;20822;-73
2023/10/19 15:12:40;;;;;;;36.30;21.20;;;;;;;;;;4990486;28;20431;-75
2023/10/19 15:15:07;;;;;;;32.43;19.87;;;;;;;;;;4993735;28;20493;-74
2023/10/19 15:17:33;;;;;;;35.10;20.13;;;;;;;;;;4989936;28;20474;-74
2023/10/19 15:19:59;;;;;;;30.10;18.37;;;;;;;;;;4994044;28;20415;-74
2023/10/19 15:22:25;;;;;;;32.80;16.70;;;;;;;;;;4993725;28;20427;-74
2023/10/19 15:24:52;;;;;;;23.80;15.70;;;;;;;;;;4994353;28;20410;-73
2023/10/19 15:27:18;;;;;;;34.27;16.70;;;;;;;;;;4994224;28;20427;-73
2023/10/19 15:29:44;;;;;;;29.87;15.37;;;;;;;;;;4993841;28;20470;-74
2023/10/19 15:32:10;;;;;;;25.40;15.30;;;;;;;;;;4993992;28;20425;-74
2023/10/19 15:34:36;;;;;;;25.83;14.70;;;;;;;;;;4994157;28;20419;-73
2023/10/19 15:37:02;;;;;;;29.43;15.13;;;;;;;;;;4991143;28;20466;-72
2023/10/19 15:39:28;;;;;;;28.07;15.10;;;;;;;;;;4977928;28;20790;-72
2023/10/19 15:41:55;;;;;;;29.37;16.90;;;;;;;;;;5003169;28;20429;-72
2023/10/19 15:44:21;;;;;;;26.77;16.97;;;;;;;;;;5000748;28;20429;-72
2023/10/19 15:46:48;;;;;;;24.57;15.30;;;;;;;;;;4992686;28;20823;-73
2023/10/19 15:49:14;;;;;;;22.00;13.77;;;;;;;;;;4992550;28;20558;-72
2023/10/19 15:51:40;;;;;;;25.63;15.13;;;;;;;;;;4992780;28;20414;-73
2023/10/19 15:54:07;;;;;;;26.80;16.50;;;;;;;;;;4993564;28;20417;-73
2023/10/19 15:56:33;;;;;;;26.90;15.40;;;;;;;;;;4993127;28;20454;-73
2023/10/19 15:58:59;;;;;;;25.90;15.93;;;;;;;;;;4993786;28;20427;-73
2023/10/19 16:01:25;;;;;;;21.20;14.43;;;;;;;;;;4993148;28;20935;-73
2023/10/19 16:03:51;;;;;;;22.83;14.90;;;;;;;;;;4992968;28;20423;-73
2023/10/19 16:06:17;;;;;;;24.90;15.40;;;;;;;;;;4993547;28;20445;-73
2023/10/19 16:08:43;;;;;;;29.10;15.23;;;;;;;;;;4992995;28;20458;-73
2023/10/19 16:11:09;;;;;;;30.33;16.43;;;;;;;;;;4993428;28;20426;-74
2023/10/19 16:13:35;;;;;;;27.30;15.47;;;;;;;;;;4993219;28;20415;-73
2023/10/19 16:16:04;;;;;;;29.90;16.30;;;;;;;;;;4992759;28;20482;-73
2023/10/19 16:18:30;;;;;;;26.37;15.07;;;;;;;;;;4992642;28;20454;-75
2023/10/19 16:20:56;;;;;;;32.40;17.60;;;;;;;;;;4994206;28;20438;-73
2023/10/19 16:23:22;;;;;;;27.13;13.63;;;;;;;;;;4995131;28;20411;-74
2023/10/19 16:25:48;;;;;;;22.50;14.10;;;;;;;;;;4999813;28;20438;-73
2023/10/19 16:28:15;;;;;;;31.20;15.23;;;;;;;;;;5006691;28;20418;-73
2023/10/19 16:30:41;;;;;;;19.57;13.23;;;;;;;;;;5006469;28;20422;-74
2023/10/19 16:33:07;;;;;;;27.67;14.57;;;;;;;;;;4998745;28;20958;-75
2023/10/19 16:35:33;;;;;;;27.97;14.80;;;;;;;;;;5004223;28;20505;-74
2023/10/19 16:37:59;;;;;;;25.27;14.23;;;;;;;;;;5003807;28;20407;-73
2023/10/19 16:40:25;;;;;;;28.60;14.43;;;;;;;;;;5002086;28;20419;-75
2023/10/19 16:42:52;;;;;;;22.47;12.30;;;;;;;;;;4997796;28;20403;-74
2023/10/19 16:45:18;;;;;;;21.10;12.30;;;;;;;;;;4992848;28;20415;-76
2023/10/19 16:47:44;;;;;;;20.97;12.03;;;;;;;;;;4993047;28;20413;-73
2023/10/19 16:50:18;;;;;;;23.23;12.80;;;;;;;;;;4976513;28;20956;-72
2023/10/19 16:52:44;;;;;;;27.73;13.93;;;;;;;;;;4993644;28;20465;-73
2023/10/19 16:55:10;;;;;;;37.53;18.90;;;;;;;;;;4992610;28;20462;-73
2023/10/19 16:57:36;;;;;;;27.67;14.63;;;;;;;;;;4992432;28;20408;-72
2023/10/19 17:00:02;;;;;;;28.13;16.63;;;;;;;;;;4992325;28;20414;-74
2023/10/19 17:02:32;;;;;;;31.40;16.93;;;;;;;;;;4994122;28;20465;-74
2023/10/19 17:04:58;;;;;;;22.70;14.83;;;;;;;;;;4993881;28;20446;-74
2023/10/19 17:07:26;;;;;;;23.30;13.50;;;;;;;;;;4992960;28;20434;-72
2023/10/19 17:09:51;;;;;;;26.13;14.57;;;;;;;;;;4992375;28;20450;-74
2023/10/19 17:12:17;;;;;;;35.53;16.70;;;;;;;;;;4992413;28;20407;-74
2023/10/19 17:14:43;;;;;;;26.83;16.57;;;;;;;;;;4989885;28;20922;-73
2023/10/19 17:17:09;;;;;;;34.70;18.70;;;;;;;;;;4990680;28;21008;-74
2023/10/19 17:19:35;;;;;;;29.30;16.33;;;;;;;;;;5008608;23;20487;-72
2023/10/19 17:22:01;;;;;;;23.87;15.17;;;;;;;;;;4973419;28;20411;-69
2023/10/19 17:24:28;;;;;;;29.10;16.17;;;;;;;;;;4960494;28;20401;-72
2023/10/19 17:26:54;;;;;;;27.30;14.60;;;;;;;;;;4937567;29;20421;-70
2023/10/19 17:29:21;;;;;;;24.10;14.33;;;;;;;;;;4960363;28;20507;-70
2023/10/19 17:31:47;;;;;;;27.83;16.50;;;;;;;;;;4968693;28;20810;-70
2023/10/19 17:34:13;;;;;;;27.80;15.57;;;;;;;;;;4956211;28;20428;-71
2023/10/19 17:36:40;;;;;;;20.50;12.47;;;;;;;;;;4960128;28;20831;-71
2023/10/19 17:39:11;;;;;;;29.33;17.40;;;;;;;;;;4955493;28;20435;-72
2023/10/19 17:41:37;;;;;;;25.27;15.50;;;;;;;;;;4962636;28;20527;-71
2023/10/19 17:44:04;;;;;;;26.87;15.67;;;;;;;;;;4947175;28;20964;-70
2023/10/19 17:46:30;;;;;;;28.70;13.80;;;;;;;;;;4963054;28;20436;-71
2023/10/19 17:48:57;;;;;;;29.03;16.40;;;;;;;;;;4969388;28;20451;-70
2023/10/19 17:51:24;;;;;;;38.53;18.80;;;;;;;;;;4967162;28;20795;-71
2023/10/19 17:53:50;;;;;;;23.00;14.70;;;;;;;;;;4973601;28;20470;-73
2023/10/19 17:56:17;;;;;;;31.27;15.17;;;;;;;;;;4970825;28;20468;-72
2023/10/19 17:58:44;;;;;;;32.17;18.60;;;;;;;;;;4964329;28;20957;-72
2023/10/19 18:01:10;;;;;;;36.57;18.37;;;;;;;;;;4954004;28;20482;-70
2023/10/19 18:03:38;;;;;;;26.00;15.83;;;;;;;;;;4967604;28;20520;-72
2023/10/19 18:06:06;;;;;;;27.83;16.40;;;;;;;;;;4973728;28;20440;-72
2023/10/19 18:08:33;;;;;;;23.07;14.93;;;;;;;;;;4973920;28;20428;-73
2023/10/19 18:10:59;;;;;;;29.13;16.20;;;;;;;;;;4970006;28;20475;-72
2023/10/19 18:13:26;;;;;;;28.33;16.13;;;;;;;;;;4976269;28;20451;-73
2023/10/19 18:15:52;;;;;;;22.23;14.73;;;;;;;;;;4985390;28;20459;-74
2023/10/19 18:18:18;;;;;;;25.10;15.13;;;;;;;;;;4971048;28;20428;-72
2023/10/19 18:20:45;;;;;;;25.80;13.97;;;;;;;;;;4963890;28;21075;-72
2023/10/19 18:23:11;;;;;;;35.27;18.20;;;;;;;;;;4969501;28;20759;-73
2023/10/19 18:25:45;;;;;;;37.57;19.60;;;;;;;;;;4967744;28;20451;-72
2023/10/19 18:28:11;;;;;;;41.47;18.23;;;;;;;;;;4972587;28;20408;-72
2023/10/19 18:30:37;;;;;;;33.43;16.87;;;;;;;;;;4968875;28;20447;-74
2023/10/19 18:33:04;;;;;;;28.40;14.97;;;;;;;;;;4983294;28;20521;-72
2023/10/19 18:35:30;;;;;;;28.73;14.77;;;;;;;;;;4988498;28;20476;-72
2023/10/19 18:37:56;;;;;;;27.57;16.07;;;;;;;;;;4987723;28;20428;-72
2023/10/19 18:40:23;;;;;;;31.33;15.60;;;;;;;;;;4985915;28;20467;-73
2023/10/19 18:42:49;;;;;;;24.40;16.00;;;;;;;;;;4977818;28;20466;-71
2023/10/19 18:45:15;;;;;;;32.30;18.37;;;;;;;;;;4969343;28;20512;-71
2023/10/19 18:47:41;;;;;;;23.63;14.47;;;;;;;;;;4976067;28;20479;-72
2023/10/19 18:50:08;;;;;;;24.20;15.00;;;;;;;;;;4953196;28;20518;-72
2023/10/19 18:52:34;;;;;;;32.13;14.93;;;;;;;;;;4967866;28;20462;-73
2023/10/19 18:55:00;;;;;;;23.90;14.63;;;;;;;;;;4964415;28;20974;-73
2023/10/19 18:57:27;;;;;;;24.60;15.40;;;;;;;;;;4958588;29;20440;-72
2023/10/19 18:59:53;;;;;;;33.00;16.80;;;;;;;;;;4941795;29;20456;-73
2023/10/19 19:02:19;;;;;;;38.00;20.67;;;;;;;;;;4955179;28;20494;-74
2023/10/19 19:04:45;;;;;;;34.53;20.37;;;;;;;;;;4968497;28;20821;-72
2023/10/19 19:07:11;;;;;;;30.23;17.07;;;;;;;;;;4974681;28;20583;-72
2023/10/19 19:09:36;;;;;;;35.87;21.40;;;;;;;;;;4962802;28;20456;-72
2023/10/19 19:12:03;;;;;;;28.13;15.10;;;;;;;;;;4963704;28;20431;-72
2023/10/19 19:14:30;;;;;;;36.90;17.30;;;;;;;;;;4958445;28;20499;-72
2023/10/19 19:16:56;;;;;;;27.07;15.87;;;;;;;;;;4958060;28;20479;-72
2023/10/19 19:19:22;;;;;;;32.60;17.43;;;;;;;;;;4968644;28;20463;-74
2023/10/19 19:21:48;;;;;;;20.27;14.17;;;;;;;;;;4965020;28;20893;-73
2023/10/19 19:24:14;;;;;;;33.47;14.47;;;;;;;;;;4974096;28;20436;-74